Time;durP1;ratioP1;P1;durP2;ratioP2;P2;SDS_P1;SDS_P2;PMS_P1;PMS_P2;Temp;Humidity;BMP_temperature;BMP_pressure;BME280_temperature;BME280_humidity;BME280_pressure;Samples;Min_cycle;Max_cycle;Signal;HPM_P1;HPM_P2
2021/08/28 00:00:21;;;;;;;5.20;3.50;;;13.10;99.90;;;;;;5049544;28;20050;-43
2021/08/28 00:02:46;;;;;;;4.10;3.22;;;13.10;99.90;;;;;;5049476;28;20101;-43
2021/08/28 00:05:13;;;;;;;3.50;3.20;;;13.10;99.90;;;;;;5048225;28;20037;-43
2021/08/28 00:07:38;;;;;;;3.97;2.85;;;13.10;99.90;;;;;;5049080;28;20445;-43
2021/08/28 00:10:06;;;;;;;3.67;3.28;;;13.00;99.90;;;;;;5049586;28;20067;-43
2021/08/28 00:12:31;;;;;;;5.82;3.70;;;13.00;99.90;;;;;;5047909;28;20044;-43
2021/08/28 00:14:57;;;;;;;4.35;3.30;;;13.00;99.90;;;;;;5059047;28;20176;-42
2021/08/28 00:17:22;;;;;;;5.53;3.30;;;13.00;99.90;;;;;;5068848;28;20020;-42
2021/08/28 00:19:48;;;;;;;3.78;3.30;;;13.00;99.90;;;;;;5067595;28;20321;-43
2021/08/28 00:22:13;;;;;;;4.00;3.20;;;12.90;99.90;;;;;;5068959;28;20034;-42
2021/08/28 00:24:39;;;;;;;4.85;3.50;;;12.90;99.90;;;;;;5068662;28;20393;-42
2021/08/28 00:27:04;;;;;;;5.50;3.88;;;12.90;99.90;;;;;;5068173;28;20028;-42
2021/08/28 00:29:30;;;;;;;5.28;3.30;;;12.90;99.90;;;;;;5068627;28;20316;-42
2021/08/28 00:31:55;;;;;;;5.68;3.50;;;12.90;99.90;;;;;;5067058;28;20063;-42
2021/08/28 00:34:21;;;;;;;6.75;3.10;;;12.90;99.90;;;;;;5068486;28;20021;-43
2021/08/28 00:36:46;;;;;;;5.32;3.53;;;12.90;99.90;;;;;;5068062;28;20028;-42
2021/08/28 00:39:12;;;;;;;3.88;3.40;;;12.90;99.90;;;;;;5068627;28;20107;-42
2021/08/28 00:41:37;;;;;;;6.90;3.83;;;12.90;99.90;;;;;;5068593;28;20033;-43
2021/08/28 00:44:03;;;;;;;3.90;3.47;;;12.90;99.90;;;;;;5058170;28;20483;-43
2021/08/28 00:46:30;;;;;;;7.38;4.05;;;12.90;99.90;;;;;;5062129;28;20043;-43
2021/08/28 00:48:55;;;;;;;5.30;3.55;;;12.90;99.90;;;;;;5068463;28;20094;-43
2021/08/28 00:51:21;;;;;;;6.80;3.42;;;12.90;99.90;;;;;;5068641;28;20028;-42
2021/08/28 00:53:47;;;;;;;5.72;3.90;;;12.90;99.90;;;;;;5068665;28;20040;-43
2021/08/28 00:56:14;;;;;;;5.85;3.92;;;12.90;99.90;;;;;;5068157;28;20016;-42
2021/08/28 00:58:41;;;;;;;6.75;3.42;;;12.90;99.90;;;;;;5067588;28;20040;-43
2021/08/28 01:01:11;;;;;;;4.65;3.67;;;12.90;99.90;;;;;;5067921;28;20020;-43
2021/08/28 01:03:41;;;;;;;5.35;4.13;;;12.90;99.90;;;;;;5067770;28;20194;-43
2021/08/28 01:06:21;;;;;;;4.70;3.97;;;12.90;99.90;;;;;;5068246;28;20043;-43
2021/08/28 01:09:13;;;;;;;6.05;4.15;;;12.90;99.90;;;;;;5068099;28;20233;-43
2021/08/28 01:11:59;;;;;;;4.28;3.95;;;12.90;99.90;;;;;;5067884;28;20029;-45
2021/08/28 01:14:27;;;;;;;8.20;3.95;;;12.90;99.90;;;;;;5049898;28;20017;-43
2021/08/28 01:17:00;;;;;;;5.10;4.53;;;12.90;99.90;;;;;;5065180;28;20104;-43
2021/08/28 01:19:58;;;;;;;6.60;3.67;;;12.80;99.90;;;;;;5067550;28;20105;-42
2021/08/28 01:22:25;;;;;;;4.38;3.97;;;12.90;99.90;;;;;;5067542;28;20488;-43
2021/08/28 01:24:51;;;;;;;5.38;4.03;;;12.90;99.90;;;;;;5067483;28;20410;-44
2021/08/28 01:27:30;;;;;;;6.22;3.63;;;12.90;99.90;;;;;;5067224;28;20029;-45
2021/08/28 01:29:58;;;;;;;4.70;3.53;;;12.80;99.90;;;;;;5067550;28;20027;-43
2021/08/28 01:32:24;;;;;;;4.65;4.22;;;12.80;99.90;;;;;;5067487;28;20111;-45
2021/08/28 01:34:52;;;;;;;3.53;3.20;;;12.90;99.90;;;;;;5067604;28;20036;-43
2021/08/28 01:37:19;;;;;;;4.18;3.67;;;12.90;99.90;;;;;;5065702;28;20025;-42
2021/08/28 01:39:47;;;;;;;6.95;3.75;;;12.80;99.90;;;;;;5067998;28;20032;-42
2021/08/28 01:42:14;;;;;;;5.20;3.90;;;12.90;99.90;;;;;;5061843;28;20397;-43
2021/08/28 01:44:45;;;;;;;7.10;3.85;;;12.90;99.90;;;;;;5051501;28;20019;-42
2021/08/28 01:47:12;;;;;;;4.63;4.05;;;12.90;99.90;;;;;;5026049;28;20478;-43
2021/08/28 01:49:40;;;;;;;7.13;4.30;;;12.80;99.90;;;;;;5027753;28;20502;-43
2021/08/28 01:52:06;;;;;;;4.97;3.88;;;12.90;99.90;;;;;;5027494;28;20025;-44
2021/08/28 01:54:31;;;;;;;7.28;3.70;;;12.90;99.90;;;;;;5026074;28;20052;-44
2021/08/28 01:56:58;;;;;;;5.07;3.75;;;12.90;99.90;;;;;;5025150;28;20036;-43
2021/08/28 01:59:23;;;;;;;7.70;4.45;;;12.80;99.90;;;;;;5027056;28;20503;-42
2021/08/28 02:01:49;;;;;;;4.32;3.75;;;12.80;99.90;;;;;;5027201;28;20040;-42
2021/08/28 02:04:14;;;;;;;4.45;3.15;;;12.80;99.90;;;;;;5027273;28;20036;-43
2021/08/28 02:07:04;;;;;;;6.40;3.72;;;12.80;99.90;;;;;;5026565;28;20032;-43
2021/08/28 02:09:58;;;;;;;5.80;3.57;;;12.80;99.90;;;;;;5027075;28;20030;-42
2021/08/28 02:12:44;;;;;;;4.63;3.65;;;12.80;99.90;;;;;;5027085;28;20387;-43
2021/08/28 02:15:21;;;;;;;6.07;3.55;;;12.80;99.90;;;;;;5047433;28;20017;-42
2021/08/28 02:17:54;;;;;;;4.65;4.07;;;12.80;99.90;;;;;;5046070;28;20109;-42
2021/08/28 02:20:26;;;;;;;6.32;4.07;;;12.80;99.90;;;;;;5046870;28;20068;-42
2021/08/28 02:22:56;;;;;;;4.38;3.97;;;12.80;99.90;;;;;;5047025;28;20064;-43
2021/08/28 02:25:38;;;;;;;4.78;3.72;;;12.80;99.90;;;;;;5045815;28;20082;-43
2021/08/28 02:28:07;;;;;;;6.53;3.95;;;12.90;99.90;;;;;;5046196;28;20040;-43
2021/08/28 02:30:33;;;;;;;5.22;3.70;;;12.80;99.90;;;;;;5045414;28;20032;-42
2021/08/28 02:33:02;;;;;;;5.13;3.88;;;12.90;99.90;;;;;;5046570;28;20074;-43
2021/08/28 02:35:29;;;;;;;4.70;3.67;;;12.90;99.90;;;;;;5046987;28;20033;-42
2021/08/28 02:37:57;;;;;;;3.90;3.50;;;12.90;99.90;;;;;;5046287;28;20475;-43
2021/08/28 02:40:24;;;;;;;6.63;3.90;;;12.90;99.90;;;;;;5046867;28;20017;-42
2021/08/28 02:42:50;;;;;;;5.93;3.80;;;12.90;99.90;;;;;;5040863;28;20025;-42
2021/08/28 02:45:19;;;;;;;4.13;3.63;;;12.80;99.90;;;;;;5058018;28;20048;-44
2021/08/28 02:47:46;;;;;;;5.40;3.95;;;12.90;99.90;;;;;;5065956;28;20644;-44
2021/08/28 02:50:14;;;;;;;3.75;3.45;;;12.80;99.90;;;;;;5066457;28;20394;-43
2021/08/28 02:52:41;;;;;;;4.13;3.60;;;12.90;99.90;;;;;;5066650;28;20029;-45
2021/08/28 02:55:09;;;;;;;4.50;3.40;;;12.90;99.90;;;;;;5066437;28;20016;-42
2021/08/28 02:57:39;;;;;;;5.90;3.90;;;12.90;99.90;;;;;;5066151;28;20024;-42
2021/08/28 03:00:05;;;;;;;7.53;3.88;;;12.90;99.90;;;;;;5066542;28;20025;-42
2021/08/28 03:02:31;;;;;;;3.95;3.40;;;12.90;99.90;;;;;;5065236;28;20021;-43
2021/08/28 03:04:57;;;;;;;4.70;3.80;;;12.90;99.90;;;;;;5065428;28;20400;-43
2021/08/28 03:07:22;;;;;;;7.47;3.83;;;12.90;99.90;;;;;;5065955;28;20024;-42
2021/08/28 03:09:50;;;;;;;6.93;4.28;;;12.90;99.90;;;;;;5066426;28;20127;-43
2021/08/28 03:12:16;;;;;;;5.00;4.40;;;12.90;99.90;;;;;;5059684;28;20032;-42
2021/08/28 03:15:01;;;;;;;7.10;4.38;;;12.90;99.90;;;;;;5050748;28;20013;-42
2021/08/28 03:17:28;;;;;;;4.85;3.92;;;12.90;99.90;;;;;;5022817;28;20045;-43
2021/08/28 03:19:57;;;;;;;4.20;3.65;;;12.90;99.90;;;;;;5006960;28;20044;-43
2021/08/28 03:22:23;;;;;;;4.22;3.83;;;12.90;99.90;;;;;;5028798;28;20038;-43
2021/08/28 03:24:50;;;;;;;4.72;3.75;;;12.90;99.90;;;;;;5030257;28;20025;-42
2021/08/28 03:27:18;;;;;;;3.97;3.67;;;12.90;99.90;;;;;;5029324;28;20045;-42
2021/08/28 03:29:45;;;;;;;5.63;4.20;;;12.90;99.90;;;;;;5030415;28;20458;-42
2021/08/28 03:32:11;;;;;;;5.25;3.90;;;12.90;99.90;;;;;;5030038;28;20030;-43
2021/08/28 03:34:37;;;;;;;3.92;3.45;;;12.90;99.90;;;;;;5029799;28;20025;-43
2021/08/28 03:37:03;;;;;;;6.07;3.90;;;12.90;99.90;;;;;;5029175;28;20060;-43
2021/08/28 03:39:31;;;;;;;7.53;4.55;;;12.90;99.90;;;;;;5029854;28;20026;-43
2021/08/28 03:41:56;;;;;;;5.13;4.10;;;12.90;99.90;;;;;;5029844;28;20498;-44
2021/08/28 03:44:22;;;;;;;4.28;3.88;;;12.90;99.90;;;;;;5051270;28;20033;-43
2021/08/28 03:46:49;;;;;;;4.13;3.72;;;12.90;99.90;;;;;;5066320;28;20039;-43
2021/08/28 03:49:15;;;;;;;4.50;3.55;;;12.90;99.90;;;;;;5070018;28;20397;-43
2021/08/28 03:51:41;;;;;;;5.20;4.07;;;12.90;99.90;;;;;;5069095;28;20021;-44
2021/08/28 03:54:06;;;;;;;6.25;4.18;;;12.90;99.90;;;;;;5069706;28;20032;-42
2021/08/28 03:56:33;;;;;;;7.03;4.13;;;12.90;99.90;;;;;;5069090;28;20032;-43
2021/08/28 03:58:58;;;;;;;4.43;3.97;;;12.90;99.90;;;;;;5069401;28;20024;-42
2021/08/28 04:01:24;;;;;;;4.60;3.85;;;12.80;99.90;;;;;;5069191;28;20105;-42
2021/08/28 04:03:49;;;;;;;3.75;3.45;;;12.90;99.90;;;;;;5069584;28;20029;-42
2021/08/28 04:06:15;;;;;;;4.30;3.85;;;12.80;99.90;;;;;;5068688;28;20247;-42
2021/08/28 04:08:41;;;;;;;7.35;4.30;;;12.80;99.90;;;;;;5069175;28;20032;-43
2021/08/28 04:11:06;;;;;;;4.05;3.65;;;12.80;99.90;;;;;;5069129;28;20390;-43
2021/08/28 04:13:32;;;;;;;6.18;4.13;;;12.80;99.90;;;;;;5059695;28;20170;-43
2021/08/28 04:15:57;;;;;;;5.15;3.72;;;12.80;99.90;;;;;;5060934;28;20025;-42
2021/08/28 04:18:23;;;;;;;5.80;4.10;;;12.80;99.90;;;;;;5068473;28;20478;-43
2021/08/28 04:20:48;;;;;;;5.57;4.05;;;12.80;99.90;;;;;;5068721;28;20025;-43
2021/08/28 04:23:14;;;;;;;4.60;4.10;;;12.80;99.90;;;;;;5069441;28;20532;-41
2021/08/28 04:25:39;;;;;;;5.30;3.88;;;12.80;99.90;;;;;;5050805;28;20059;-42
2021/08/28 04:28:05;;;;;;;5.72;4.50;;;12.80;99.90;;;;;;5068047;28;20051;-42
2021/08/28 04:30:32;;;;;;;3.80;3.42;;;12.80;99.90;;;;;;5040082;28;20319;-42
2021/08/28 04:32:58;;;;;;;4.50;4.00;;;12.90;99.90;;;;;;5037545;28;20260;-42
2021/08/28 04:35:23;;;;;;;3.97;3.63;;;12.80;99.90;;;;;;5029785;28;20022;-42
2021/08/28 04:37:49;;;;;;;5.22;4.70;;;12.80;99.90;;;;;;5043516;28;20099;-42
2021/08/28 04:40:14;;;;;;;4.75;3.83;;;12.90;99.90;;;;;;5057189;28;20041;-42
2021/08/28 04:42:40;;;;;;;4.78;4.03;;;12.80;99.90;;;;;;5043958;28;20037;-42
2021/08/28 04:45:06;;;;;;;3.92;3.53;;;12.90;99.90;;;;;;5057898;28;20020;-43
2021/08/28 04:47:32;;;;;;;5.70;3.95;;;12.90;99.90;;;;;;5067566;28;20025;-42
2021/08/28 04:49:57;;;;;;;4.82;3.17;;;12.90;99.90;;;;;;5068209;28;20614;-42
2021/08/28 04:52:23;;;;;;;5.28;3.85;;;12.90;99.90;;;;;;5066951;28;20548;-42
2021/08/28 04:54:49;;;;;;;3.33;3.03;;;12.90;99.90;;;;;;5068223;28;20021;-42
2021/08/28 04:57:14;;;;;;;5.80;4.18;;;13.00;99.90;;;;;;5067639;28;20482;-43
2021/08/28 04:59:40;;;;;;;4.57;4.18;;;13.00;99.90;;;;;;5067976;28;20513;-42
2021/08/28 05:02:05;;;;;;;3.80;3.35;;;13.00;99.90;;;;;;5068342;28;20013;-42
2021/08/28 05:04:31;;;;;;;3.22;2.92;;;13.00;99.90;;;;;;5067706;28;20111;-42
2021/08/28 05:06:57;;;;;;;4.35;3.72;;;13.00;99.90;;;;;;5067913;28;20390;-44
2021/08/28 05:09:22;;;;;;;4.13;3.72;;;13.10;99.90;;;;;;5068046;28;20028;-43
2021/08/28 05:11:48;;;;;;;3.75;3.00;;;13.10;99.90;;;;;;5066588;28;20112;-44
2021/08/28 05:14:14;;;;;;;6.32;3.53;;;13.10;99.90;;;;;;5057958;28;20047;-42
2021/08/28 05:16:40;;;;;;;4.97;2.88;;;13.20;99.90;;;;;;5063862;28;20104;-42
2021/08/28 05:19:05;;;;;;;4.47;3.28;;;13.20;99.90;;;;;;5068372;28;20108;-43
2021/08/28 05:21:31;;;;;;;3.75;3.45;;;13.20;99.90;;;;;;5066776;28;20055;-42
2021/08/28 05:23:57;;;;;;;5.38;3.50;;;13.20;99.90;;;;;;5037795;28;20489;-44
2021/08/28 05:26:23;;;;;;;3.72;3.42;;;13.30;99.90;;;;;;5037988;28;20037;-43
2021/08/28 05:28:49;;;;;;;3.83;3.15;;;13.30;99.90;;;;;;5037509;28;20033;-42
2021/08/28 05:31:14;;;;;;;5.55;4.03;;;13.30;99.90;;;;;;5037126;28;20036;-43
2021/08/28 05:33:39;;;;;;;7.90;3.80;;;13.30;99.90;;;;;;5038963;28;20116;-43
2021/08/28 05:36:05;;;;;;;3.78;3.10;;;13.30;99.90;;;;;;5028993;28;20029;-43
2021/08/28 05:38:31;;;;;;;3.35;3.05;;;13.30;99.90;;;;;;5040190;28;20036;-43
2021/08/28 05:40:57;;;;;;;4.00;3.60;;;13.30;99.90;;;;;;5040831;28;20021;-43
2021/08/28 05:43:22;;;;;;;4.40;3.30;;;13.40;99.90;;;;;;5031236;28;20487;-42
2021/08/28 05:45:48;;;;;;;8.20;3.05;;;13.40;99.90;;;;;;5034093;28;20033;-42
2021/08/28 05:48:13;;;;;;;3.65;3.28;;;13.40;99.90;;;;;;5038886;28;20033;-42
2021/08/28 05:50:39;;;;;;;6.00;3.83;;;13.50;99.90;;;;;;5036479;28;20049;-42
2021/08/28 05:53:05;;;;;;;5.07;4.00;;;13.50;99.90;;;;;;5037411;28;20029;-42
2021/08/28 05:55:30;;;;;;;4.85;3.25;;;13.50;99.90;;;;;;5031845;28;20032;-42
2021/08/28 05:57:56;;;;;;;4.10;3.50;;;13.50;99.90;;;;;;5036324;28;20379;-42
2021/08/28 06:00:21;;;;;;;4.55;3.58;;;13.60;99.90;;;;;;5037387;28;20017;-42
2021/08/28 06:02:47;;;;;;;6.88;4.28;;;13.60;99.90;;;;;;5037811;28;20475;-42
2021/08/28 06:05:13;;;;;;;6.43;4.03;;;13.60;99.90;;;;;;5038387;28;20068;-42
2021/08/28 06:07:39;;;;;;;4.00;3.70;;;13.60;99.90;;;;;;5033125;28;20136;-43
2021/08/28 06:10:05;;;;;;;4.30;3.90;;;13.60;99.90;;;;;;5036511;28;20040;-42
2021/08/28 06:12:32;;;;;;;4.20;3.80;;;13.70;99.90;;;;;;5029846;28;20041;-42
2021/08/28 06:14:58;;;;;;;4.10;3.70;;;13.70;99.90;;;;;;5055912;28;20444;-43
2021/08/28 06:17:23;;;;;;;6.63;4.63;;;13.70;99.90;;;;;;5045100;28;20053;-42
2021/08/28 06:19:49;;;;;;;4.35;3.83;;;13.80;99.90;;;;;;5045006;28;20060;-43
2021/08/28 06:22:14;;;;;;;4.93;4.10;;;13.80;99.90;;;;;;5030148;28;20086;-43
2021/08/28 06:24:41;;;;;;;5.07;3.80;;;13.80;99.90;;;;;;5026493;28;20036;-42
2021/08/28 06:27:08;;;;;;;4.63;4.13;;;13.80;99.90;;;;;;5057039;28;20417;-42
2021/08/28 06:29:34;;;;;;;7.38;4.20;;;13.80;99.90;;;;;;5065959;28;20048;-42
2021/08/28 06:31:59;;;;;;;4.47;3.78;;;13.90;99.90;;;;;;5055423;28;20019;-42
2021/08/28 06:34:25;;;;;;;5.28;4.30;;;14.00;99.90;;;;;;5060831;28;20033;-43
2021/08/28 06:36:50;;;;;;;4.65;4.18;;;14.20;99.90;;;;;;5052810;28;20026;-42
2021/08/28 06:39:16;;;;;;;4.78;3.97;;;14.30;99.90;;;;;;5058350;28;20021;-43
2021/08/28 06:41:41;;;;;;;4.55;4.15;;;14.50;99.90;;;;;;5066642;28;20276;-43
2021/08/28 06:44:07;;;;;;;3.75;3.45;;;14.50;99.90;;;;;;5059127;28;20064;-43
2021/08/28 06:46:32;;;;;;;3.88;3.15;;;14.60;99.90;;;;;;5036654;28;20090;-41
2021/08/28 06:48:58;;;;;;;4.93;3.58;;;14.70;99.90;;;;;;5035923;28;20034;-42
2021/08/28 06:51:24;;;;;;;3.80;2.90;;;14.70;99.90;;;;;;5034304;28;20542;-42
2021/08/28 06:53:49;;;;;;;3.47;3.17;;;14.80;99.90;;;;;;5032057;28;20079;-42
2021/08/28 06:56:19;;;;;;;3.30;3.00;;;14.80;99.90;;;;;;5037848;28;20096;-42
2021/08/28 06:58:44;;;;;;;4.85;3.08;;;15.00;99.90;;;;;;5033695;28;20029;-42
2021/08/28 07:01:10;;;;;;;3.00;2.70;;;15.20;99.90;;;;;;5057096;28;20043;-42
2021/08/28 07:03:36;;;;;;;2.75;2.20;;;15.30;99.90;;;;;;5049027;28;20021;-42
2021/08/28 07:06:02;;;;;;;7.55;2.55;;;15.40;99.90;;;;;;5049169;28;20033;-43
2021/08/28 07:08:27;;;;;;;4.18;2.50;;;15.50;99.90;;;;;;5049184;28;20433;-43
2021/08/28 07:10:53;;;;;;;2.70;2.50;;;15.60;99.90;;;;;;5049092;28;20040;-43
2021/08/28 07:13:19;;;;;;;3.22;1.83;;;15.60;99.90;;;;;;5053076;28;20029;-43
2021/08/28 07:15:45;;;;;;;2.20;2.00;;;15.70;99.90;;;;;;5060946;28;20274;-42
2021/08/28 07:18:11;;;;;;;4.80;1.98;;;15.70;99.90;;;;;;5067515;28;20115;-43
2021/08/28 07:20:38;;;;;;;1.70;1.60;;;15.80;99.90;;;;;;5069487;28;20378;-43
2021/08/28 07:23:03;;;;;;;1.85;1.70;;;15.80;99.90;;;;;;5064145;28;20031;-43
2021/08/28 07:25:29;;;;;;;4.60;1.63;;;15.80;99.90;;;;;;5039818;28;20021;-43
2021/08/28 07:27:54;;;;;;;1.58;1.48;;;16.00;99.90;;;;;;5037094;28;20092;-43
2021/08/28 07:30:20;;;;;;;3.00;1.60;;;16.00;99.90;;;;;;5041865;28;20318;-43
2021/08/28 07:32:45;;;;;;;1.58;1.48;;;16.10;99.90;;;;;;5049292;28;20421;-44
2021/08/28 07:35:11;;;;;;;3.15;1.60;;;16.10;99.90;;;;;;5048951;28;20029;-46
2021/08/28 07:37:37;;;;;;;1.77;1.55;;;16.10;99.90;;;;;;5048413;28;20025;-43
2021/08/28 07:40:04;;;;;;;1.55;1.45;;;16.10;99.90;;;;;;5049111;28;20505;-43
2021/08/28 07:42:29;;;;;;;1.23;1.10;;;16.40;99.90;;;;;;5049202;28;20025;-43
2021/08/28 07:44:55;;;;;;;3.10;1.80;;;16.80;99.90;;;;;;5055606;28;20474;-43
2021/08/28 07:47:20;;;;;;;2.10;1.20;;;17.20;99.90;;;;;;5049041;28;20060;-44
2021/08/28 07:49:46;;;;;;;1.45;1.20;;;17.50;99.90;;;;;;5049239;28;20020;-44
2021/08/28 07:52:11;;;;;;;1.40;1.23;;;17.40;99.90;;;;;;5048871;28;20025;-43
2021/08/28 07:54:37;;;;;;;1.38;1.10;;;17.50;99.90;;;;;;5049095;28;20029;-44
2021/08/28 07:57:03;;;;;;;1.17;0.90;;;17.60;99.90;;;;;;5048520;28;20025;-43
2021/08/28 07:59:28;;;;;;;1.25;0.80;;;17.70;99.90;;;;;;5033454;28;20025;-42
2021/08/28 08:01:54;;;;;;;1.30;0.70;;;17.70;99.90;;;;;;5028474;28;20570;-43
2021/08/28 08:04:20;;;;;;;0.90;0.60;;;17.60;99.90;;;;;;5028308;28;20100;-43
2021/08/28 08:06:45;;;;;;;1.80;1.10;;;17.70;99.90;;;;;;5051435;28;20505;-46
2021/08/28 08:09:11;;;;;;;1.20;1.00;;;18.20;99.90;;;;;;5067265;28;20033;-43
2021/08/28 08:11:36;;;;;;;2.03;0.90;;;18.80;99.90;;;;;;5068836;28;20085;-44
2021/08/28 08:14:02;;;;;;;1.63;0.88;;;19.80;99.90;;;;;;5068328;28;20490;-44
2021/08/28 08:16:27;;;;;;;1.00;0.90;;;21.00;99.90;;;;;;5068597;28;20028;-44
2021/08/28 08:18:53;;;;;;;0.70;0.70;;;22.20;99.90;;;;;;5068784;28;20259;-44
2021/08/28 08:21:20;;;;;;;1.05;0.68;;;22.40;99.90;;;;;;5069188;28;20386;-44
2021/08/28 08:23:46;;;;;;;1.88;0.80;;;22.60;99.90;;;;;;5067989;28;20032;-45
2021/08/28 08:26:12;;;;;;;2.00;0.60;;;23.10;99.90;;;;;;5068451;28;20186;-44
2021/08/28 08:28:37;;;;;;;2.92;0.75;;;23.80;99.90;;;;;;5067794;28;20021;-44
2021/08/28 08:31:03;;;;;;;0.70;0.70;;;24.40;98.70;;;;;;5068890;28;20029;-43
2021/08/28 08:33:28;;;;;;;1.08;0.77;;;24.00;98.10;;;;;;5068113;28;20064;-43
2021/08/28 08:35:54;;;;;;;0.93;0.93;;;23.40;97.70;;;;;;5065656;28;20012;-45
2021/08/28 08:38:20;;;;;;;0.80;0.80;;;22.40;99.00;;;;;;5059775;28;20103;-43
2021/08/28 08:40:47;;;;;;;1.23;0.90;;;21.30;99.90;;;;;;5068933;28;20020;-43
2021/08/28 08:43:13;;;;;;;1.25;0.95;;;20.50;99.90;;;;;;5061136;28;20291;-44
2021/08/28 08:45:39;;;;;;;1.10;1.00;;;19.80;99.90;;;;;;5052760;28;20021;-43
2021/08/28 08:48:05;;;;;;;2.95;1.10;;;19.20;99.90;;;;;;5067308;28;20478;-42
2021/08/28 08:50:32;;;;;;;2.13;0.82;;;18.80;99.90;;;;;;5068692;28;20036;-43
2021/08/28 08:53:04;;;;;;;2.97;1.13;;;18.50;99.90;;;;;;5068368;28;20033;-43
2021/08/28 08:55:31;;;;;;;1.23;1.10;;;18.30;99.90;;;;;;5068323;28;20036;-45
2021/08/28 08:57:58;;;;;;;1.08;0.90;;;18.00;99.90;;;;;;5066093;28;20122;-43
2021/08/28 09:00:23;;;;;;;1.00;0.90;;;17.80;99.90;;;;;;5068568;28;20017;-42
2021/08/28 09:02:49;;;;;;;0.90;0.90;;;17.60;99.90;;;;;;5067825;28;20024;-43
2021/08/28 09:05:14;;;;;;;1.48;1.20;;;17.50;99.90;;;;;;5068422;28;20027;-42
2021/08/28 09:07:40;;;;;;;2.22;1.17;;;17.40;99.90;;;;;;5067409;28;20033;-43
2021/08/28 09:10:06;;;;;;;2.10;1.27;;;17.20;99.90;;;;;;5068113;28;20033;-43
2021/08/28 09:12:41;;;;;;;2.05;1.42;;;17.10;99.90;;;;;;5066537;28;20486;-43
2021/08/28 09:15:11;;;;;;;4.18;1.25;;;16.90;99.90;;;;;;5050193;28;20013;-43
2021/08/28 09:17:37;;;;;;;2.95;1.20;;;16.80;99.90;;;;;;5062781;28;20028;-42
2021/08/28 09:20:17;;;;;;;2.80;1.35;;;16.70;99.90;;;;;;5066592;28;20042;-43
2021/08/28 09:22:43;;;;;;;1.90;1.55;;;16.60;99.90;;;;;;5060619;28;20131;-43
2021/08/28 09:25:09;;;;;;;1.63;1.40;;;16.60;99.90;;;;;;5058587;28;20128;-43
2021/08/28 09:27:42;;;;;;;3.40;1.70;;;16.60;99.90;;;;;;5045523;28;20025;-43
2021/08/28 09:30:21;;;;;;;1.77;1.50;;;16.60;99.90;;;;;;5026103;28;20053;-43
2021/08/28 09:32:48;;;;;;;9.53;1.90;;;16.70;99.90;;;;;;5026043;28;20033;-43
2021/08/28 09:35:14;;;;;;;1.30;1.20;;;16.90;99.90;;;;;;5026495;28;20554;-43
2021/08/28 09:37:41;;;;;;;1.95;1.60;;;17.00;99.90;;;;;;5027054;28;20100;-43
2021/08/28 09:40:06;;;;;;;1.45;1.30;;;17.10;99.90;;;;;;5031177;28;20471;-43
2021/08/28 09:42:32;;;;;;;1.52;1.42;;;17.30;99.90;;;;;;5045294;28;20078;-45
2021/08/28 09:45:08;;;;;;;1.42;1.33;;;17.40;99.90;;;;;;5046045;28;20247;-43
2021/08/28 09:47:34;;;;;;;5.07;1.45;;;17.60;99.90;;;;;;5061372;28;20029;-43
2021/08/28 09:49:59;;;;;;;1.80;1.30;;;17.80;99.90;;;;;;5066917;28;20109;-43
2021/08/28 09:52:26;;;;;;;2.30;1.30;;;17.90;99.90;;;;;;5043061;28;20422;-44
2021/08/28 09:54:54;;;;;;;1.38;1.02;;;18.00;99.90;;;;;;5038944;28;20025;-45
2021/08/28 09:57:20;;;;;;;1.95;1.20;;;18.00;99.90;;;;;;5035213;28;20105;-44
2021/08/28 09:59:46;;;;;;;2.67;1.45;;;18.00;99.90;;;;;;5036155;28;20107;-43
2021/08/28 10:02:15;;;;;;;2.60;1.40;;;18.00;99.90;;;;;;5043123;28;20576;-43
2021/08/28 10:04:47;;;;;;;2.20;1.25;;;17.90;99.90;;;;;;5043197;28;20095;-43
2021/08/28 10:07:18;;;;;;;1.40;1.30;;;17.90;99.90;;;;;;5046345;28;20017;-43
2021/08/28 10:09:44;;;;;;;1.40;1.30;;;18.00;99.90;;;;;;5046708;28;20117;-44
2021/08/28 10:12:10;;;;;;;1.50;1.40;;;18.00;99.90;;;;;;5046496;28;20454;-43
2021/08/28 10:14:35;;;;;;;1.65;1.48;;;17.90;99.90;;;;;;5046582;28;20084;-44
2021/08/28 10:17:03;;;;;;;2.22;1.90;;;17.90;99.90;;;;;;5058095;28;20398;-43
2021/08/28 10:19:28;;;;;;;2.03;1.45;;;17.90;99.90;;;;;;5066627;28;20024;-43
2021/08/28 10:21:54;;;;;;;1.33;1.23;;;17.90;99.90;;;;;;5066211;28;20085;-44
2021/08/28 10:24:22;;;;;;;2.20;1.30;;;18.00;99.90;;;;;;5066124;28;20032;-44
2021/08/28 10:26:48;;;;;;;1.88;1.27;;;18.20;99.90;;;;;;5033924;28;20029;-45
2021/08/28 10:29:33;;;;;;;2.63;1.30;;;18.30;99.90;;;;;;5030921;28;20417;-44
2021/08/28 10:31:59;;;;;;;1.90;1.80;;;18.50;99.90;;;;;;5048275;28;20053;-44
2021/08/28 10:34:24;;;;;;;1.52;1.42;;;18.60;99.90;;;;;;5044924;28;20044;-44
2021/08/28 10:36:51;;;;;;;2.83;1.50;;;18.70;99.90;;;;;;5049517;28;20526;-43
2021/08/28 10:39:17;;;;;;;2.10;1.30;;;18.70;99.90;;;;;;5048963;28;20035;-44
2021/08/28 10:41:43;;;;;;;1.38;1.23;;;19.80;99.90;;;;;;5051103;28;20179;-44
2021/08/28 10:44:09;;;;;;;1.30;1.05;;;20.40;99.90;;;;;;5045837;28;20028;-44
2021/08/28 10:46:34;;;;;;;2.90;1.20;;;20.60;99.90;;;;;;5061303;28;20035;-43
2021/08/28 10:49:02;;;;;;;1.77;1.48;;;20.50;99.90;;;;;;5070576;28;20580;-43
2021/08/28 10:51:34;;;;;;;2.42;1.88;;;20.10;99.90;;;;;;5062587;28;20098;-43
2021/08/28 10:54:08;;;;;;;2.22;1.60;;;20.00;99.90;;;;;;5038701;28;20022;-43
2021/08/28 10:56:51;;;;;;;1.70;1.60;;;20.00;99.90;;;;;;5038115;28;20030;-44
2021/08/28 10:59:33;;;;;;;2.22;1.73;;;20.30;99.90;;;;;;5034346;28;20056;-43
2021/08/28 11:02:09;;;;;;;2.63;2.42;;;20.30;99.90;;;;;;5035808;28;20022;-44
2021/08/28 11:04:40;;;;;;;2.35;2.15;;;20.10;99.90;;;;;;5052657;28;20099;-43
2021/08/28 11:07:26;;;;;;;3.17;2.67;;;19.70;99.90;;;;;;5037628;28;20025;-43
2021/08/28 11:10:10;;;;;;;3.75;2.67;;;19.50;99.90;;;;;;5041450;28;20047;-43
2021/08/28 11:13:02;;;;;;;4.85;3.00;;;19.30;99.90;;;;;;5042351;28;20251;-44
2021/08/28 11:15:28;;;;;;;3.05;2.60;;;19.80;99.90;;;;;;5052111;28;20036;-44
2021/08/28 11:18:32;;;;;;;2.90;2.65;;;20.70;99.90;;;;;;5066322;28;20126;-43
2021/08/28 11:21:06;;;;;;;3.00;2.17;;;21.20;99.90;;;;;;5061218;28;20025;-43
2021/08/28 11:23:38;;;;;;;2.45;2.25;;;21.40;99.90;;;;;;5039541;28;20053;-43
2021/08/28 11:26:03;;;;;;;5.53;3.75;;;21.20;99.90;;;;;;5033884;28;20068;-42
2021/08/28 11:28:37;;;;;;;4.32;2.78;;;20.90;99.90;;;;;;5040253;28;20541;-43
2021/08/28 11:31:03;;;;;;;2.80;2.33;;;20.80;99.90;;;;;;5032044;28;20033;-43
2021/08/28 11:33:31;;;;;;;2.58;2.20;;;20.80;99.90;;;;;;5040115;28;20076;-43
2021/08/28 11:36:07;;;;;;;2.90;2.08;;;21.40;99.90;;;;;;5037691;28;20025;-44
2021/08/28 11:38:38;;;;;;;3.30;2.10;;;23.00;99.90;;;;;;5038698;28;20441;-44
2021/08/28 11:41:12;;;;;;;1.90;1.70;;;24.70;99.90;;;;;;5036321;28;20009;-43
2021/08/28 11:43:40;;;;;;;3.25;1.90;;;25.80;98.70;;;;;;5040843;28;20479;-45
2021/08/28 11:46:12;;;;;;;2.78;1.95;;;26.70;92.20;;;;;;5058814;28;20021;-44
2021/08/28 11:48:40;;;;;;;2.00;1.80;;;27.20;92.10;;;;;;5068710;28;20031;-43
2021/08/28 11:51:11;;;;;;;1.95;1.75;;;27.20;91.70;;;;;;5067186;28;20150;-43
2021/08/28 11:53:41;;;;;;;1.67;1.58;;;27.00;90.00;;;;;;5068710;28;20280;-44
2021/08/28 11:56:17;;;;;;;3.22;1.88;;;27.00;88.80;;;;;;5054631;28;20466;-44
2021/08/28 11:58:58;;;;;;;2.22;1.60;;;27.20;89.50;;;;;;5048572;28;20561;-44
2021/08/28 12:01:31;;;;;;;2.53;1.90;;;27.20;88.10;;;;;;5048960;28;20032;-44
2021/08/28 12:04:16;;;;;;;4.72;1.75;;;27.50;86.70;;;;;;5049126;28;20033;-44
2021/08/28 12:06:43;;;;;;;2.17;1.55;;;27.40;87.50;;;;;;5048284;28;20036;-44
2021/08/28 12:09:11;;;;;;;1.70;1.60;;;27.10;87.40;;;;;;5042392;28;20348;-44
2021/08/28 12:11:43;;;;;;;1.75;1.65;;;27.50;86.20;;;;;;5045908;28;20021;-44
2021/08/28 12:14:10;;;;;;;2.47;2.00;;;27.40;84.20;;;;;;5047797;28;20470;-44
2021/08/28 12:16:37;;;;;;;3.30;2.10;;;27.40;86.00;;;;;;5060041;28;20402;-43
2021/08/28 12:19:18;;;;;;;2.42;2.03;;;27.30;86.40;;;;;;5068897;28;20025;-43
2021/08/28 12:21:54;;;;;;;4.07;1.63;;;26.70;85.70;;;;;;5068954;28;20107;-44
2021/08/28 12:24:30;;;;;;;3.08;1.60;;;26.20;85.80;;;;;;5054608;28;20086;-44
2021/08/28 12:26:59;;;;;;;2.33;1.70;;;26.00;85.70;;;;;;5047901;28;20029;-43
2021/08/28 12:29:38;;;;;;;2.42;1.95;;;25.40;85.40;;;;;;5041068;28;20029;-44
2021/08/28 12:32:09;;;;;;;2.10;1.90;;;25.30;88.50;;;;;;5047808;28;20440;-44
2021/08/28 12:34:36;;;;;;;2.22;2.00;;;24.90;89.60;;;;;;5032144;28;20693;-43
2021/08/28 12:37:04;;;;;;;3.92;2.28;;;24.40;90.70;;;;;;5027162;28;20025;-44
2021/08/28 12:39:30;;;;;;;2.90;2.25;;;23.90;91.10;;;;;;5028222;28;20136;-45
2021/08/28 12:41:57;;;;;;;4.45;2.30;;;23.30;91.70;;;;;;5027910;28;20026;-43
2021/08/28 12:44:24;;;;;;;3.00;1.90;;;22.90;92.30;;;;;;5038657;28;20025;-43
2021/08/28 12:46:52;;;;;;;4.50;2.53;;;22.40;92.00;;;;;;5059052;28;20027;-43
2021/08/28 12:49:20;;;;;;;2.50;2.03;;;22.00;93.50;;;;;;5065335;28;20516;-42
2021/08/28 12:52:07;;;;;;;3.05;2.20;;;21.50;93.80;;;;;;5035598;28;20059;-43